createdAt,value
2023-05-11T00:01:47.536Z,66.86
2023-05-11T00:04:15.441Z,66.84
2023-05-11T00:06:43.090Z,66.91
2023-05-11T00:09:11.588Z,66.91
2023-05-11T00:11:39.431Z,67.18
2023-05-11T00:14:07.006Z,67.37
2023-05-11T00:16:34.683Z,67.42
2023-05-11T00:19:02.691Z,67.30
2023-05-11T00:21:30.251Z,67.51
2023-05-11T00:23:58.001Z,67.39
2023-05-11T00:26:26.802Z,67.44
2023-05-11T00:28:54.389Z,67.66
2023-05-11T00:31:21.977Z,67.81
2023-05-11T00:33:50.027Z,68.07
2023-05-11T00:36:17.645Z,67.92
2023-05-11T00:38:45.193Z,67.86
2023-05-11T00:41:13.359Z,67.90
2023-05-11T00:43:41.084Z,67.83
2023-05-11T00:46:09.205Z,67.80
2023-05-11T00:48:37.569Z,67.86
2023-05-11T00:51:07.001Z,67.75
2023-05-11T00:53:34.601Z,67.75
2023-05-11T00:56:03.748Z,67.84
2023-05-11T00:58:31.804Z,67.83
2023-05-11T01:00:59.411Z,67.74
2023-05-11T01:03:27.419Z,67.76
2023-05-11T01:06:00.668Z,67.70
2023-05-11T01:08:35.478Z,67.93
2023-05-11T01:11:11.630Z,67.70
2023-05-11T01:14:44.274Z,67.53
2023-05-11T01:17:23.584Z,67.73
2023-05-11T01:19:58.846Z,67.63
2023-05-11T01:22:39.133Z,67.75
2023-05-11T01:25:19.416Z,67.47
2023-05-11T01:28:24.007Z,67.62
2023-05-11T01:30:57.877Z,67.57
2023-05-11T01:33:31.154Z,67.50
2023-05-11T01:36:05.562Z,67.37
2023-05-11T01:38:37.677Z,67.48
2023-05-11T01:41:12.534Z,67.45
2023-05-11T01:43:43.106Z,67.67
2023-05-11T01:46:12.964Z,67.75
2023-05-11T01:48:44.651Z,67.84
2023-05-11T01:51:13.796Z,68.11
2023-05-11T01:53:42.585Z,67.84
2023-05-11T01:56:11.944Z,68.00
2023-05-11T01:58:41.848Z,68.15
2023-05-11T02:01:11.347Z,67.84
2023-05-11T02:03:40.517Z,67.90
2023-05-11T02:06:11.357Z,67.99
2023-05-11T02:08:41.546Z,68.06
2023-05-11T02:11:10.600Z,67.98
2023-05-11T02:13:42.032Z,67.98
2023-05-11T02:16:11.155Z,68.16
2023-05-11T02:18:43.456Z,68.33
2023-05-11T02:21:12.590Z,68.35
2023-05-11T02:23:42.040Z,68.30
2023-05-11T02:26:11.087Z,68.29
2023-05-11T02:28:39.383Z,68.12
2023-05-11T02:31:12.748Z,68.26
2023-05-11T02:33:45.821Z,68.09
2023-05-11T02:36:18.220Z,68.38
2023-05-11T02:38:49.188Z,68.24
2023-05-11T02:41:25.095Z,68.38
2023-05-11T02:43:55.548Z,68.36
2023-05-11T02:46:35.659Z,68.38
2023-05-11T02:49:08.095Z,68.30
2023-05-11T02:51:41.327Z,68.19
2023-05-11T02:54:10.984Z,68.44
2023-05-11T02:56:39.486Z,68.30
2023-05-11T02:59:07.477Z,68.24
2023-05-11T03:01:35.798Z,68.29
2023-05-11T03:04:06.827Z,68.19
2023-05-11T03:06:35.805Z,68.26
2023-05-11T03:09:03.989Z,68.14
2023-05-11T03:11:32.505Z,68.23
2023-05-11T03:14:02.620Z,68.52
2023-05-11T03:16:32.461Z,68.50
2023-05-11T03:19:02.069Z,68.50
2023-05-11T03:21:30.037Z,68.71
2023-05-11T03:23:58.148Z,68.62
2023-05-11T03:26:27.980Z,68.78
2023-05-11T03:28:58.169Z,68.46
2023-05-11T03:31:25.889Z,68.46
2023-05-11T03:33:53.648Z,68.65
2023-05-11T03:36:23.782Z,68.40
2023-05-11T03:38:56.725Z,68.38
2023-05-11T03:41:29.009Z,68.51
2023-05-11T03:44:00.029Z,68.57
2023-05-11T03:46:30.075Z,68.71
2023-05-11T03:48:59.074Z,68.70
2023-05-11T03:51:27.696Z,68.58
2023-05-11T03:53:56.530Z,68.49
2023-05-11T03:56:24.584Z,68.56
2023-05-11T03:58:53.137Z,68.54
2023-05-11T04:01:22.852Z,68.66
2023-05-11T04:03:53.510Z,68.63
2023-05-11T04:06:21.960Z,68.51
2023-05-11T04:08:50.687Z,68.60
2023-05-11T04:11:18.392Z,68.83
2023-05-11T04:13:46.484Z,68.64
2023-05-11T04:16:14.312Z,68.85
2023-05-11T04:18:41.890Z,68.58
2023-05-11T04:21:09.472Z,68.55
2023-05-11T04:23:38.149Z,68.64
2023-05-11T04:26:05.726Z,68.49
2023-05-11T04:28:33.287Z,68.57
2023-05-11T04:31:01.157Z,68.45
2023-05-11T04:33:29.746Z,68.20
2023-05-11T04:35:58.975Z,68.01
2023-05-11T04:38:27.030Z,67.96
2023-05-11T04:40:54.552Z,68.11
2023-05-11T04:43:22.901Z,67.77
2023-05-11T04:45:51.667Z,67.65
2023-05-11T04:48:20.849Z,67.89
2023-05-11T04:50:48.756Z,68.06
2023-05-11T04:53:17.465Z,67.90
2023-05-11T04:55:45.184Z,67.62
2023-05-11T04:58:12.691Z,67.70
2023-05-11T05:00:40.855Z,67.87
2023-05-11T05:03:08.436Z,67.91
2023-05-11T05:05:35.971Z,67.87
2023-05-11T05:08:03.962Z,67.76
2023-05-11T05:10:31.478Z,67.84
2023-05-11T05:12:58.994Z,67.69
2023-05-11T05:15:27.103Z,67.67
2023-05-11T05:17:54.784Z,67.36
2023-05-11T05:20:22.667Z,67.23
2023-05-11T05:22:50.592Z,67.06
2023-05-11T05:25:18.491Z,67.25
2023-05-11T05:27:46.323Z,66.81
2023-05-11T05:30:15.823Z,66.50
2023-05-11T05:32:44.189Z,66.36
2023-05-11T05:35:11.740Z,66.51
2023-05-11T05:37:40.581Z,66.40
2023-05-11T05:40:09.009Z,66.06
2023-05-11T05:42:37.571Z,66.21
2023-05-11T05:45:06.535Z,66.09
2023-05-11T05:47:34.139Z,65.63
2023-05-11T05:50:01.987Z,65.68
2023-05-11T05:52:29.963Z,65.34
2023-05-11T05:54:58.266Z,65.35
2023-05-11T05:57:26.492Z,65.18
2023-05-11T05:59:54.453Z,65.10
2023-05-11T06:02:22.264Z,65.25
2023-05-11T06:04:50.170Z,64.98
2023-05-11T06:07:17.741Z,64.61
2023-05-11T06:09:45.303Z,64.77
2023-05-11T06:12:13.147Z,64.79
2023-05-11T06:14:41.707Z,65.11
2023-05-11T06:17:09.335Z,64.81
2023-05-11T06:19:37.575Z,64.43
2023-05-11T06:22:06.715Z,64.54
2023-05-11T06:24:38.116Z,64.50
2023-05-11T06:27:06.288Z,63.92
2023-05-11T06:29:34.124Z,63.66
2023-05-11T06:32:02.221Z,63.05
2023-05-11T06:34:31.258Z,62.95
2023-05-11T06:37:00.196Z,62.96
2023-05-11T06:39:27.795Z,62.58
2023-05-11T06:41:57.009Z,63.13
2023-05-11T06:44:28.882Z,62.94
2023-05-11T06:46:58.027Z,61.82
2023-05-11T06:49:25.546Z,62.05
2023-05-11T06:51:53.085Z,61.87
2023-05-11T06:54:21.275Z,61.59
2023-05-11T06:56:48.790Z,61.56
2023-05-11T06:59:16.279Z,61.30
2023-05-11T07:01:44.207Z,61.29
2023-05-11T07:04:12.017Z,61.67
2023-05-11T07:06:39.554Z,61.41
2023-05-11T07:09:08.122Z,61.50
2023-05-11T07:11:35.743Z,61.43
2023-05-11T07:14:03.537Z,61.63
2023-05-11T07:16:31.530Z,61.23
2023-05-11T07:18:59.114Z,61.37
2023-05-11T07:21:26.714Z,61.65
2023-05-11T07:23:54.552Z,61.26
2023-05-11T07:26:22.152Z,61.69
2023-05-11T07:28:49.651Z,61.25
2023-05-11T07:31:17.558Z,61.41
2023-05-11T07:33:45.067Z,60.95
2023-05-11T07:36:12.606Z,61.48
2023-05-11T07:38:40.546Z,61.17
2023-05-11T07:41:10.105Z,61.62
2023-05-11T07:43:39.136Z,61.13
2023-05-11T07:46:07.420Z,60.89
2023-05-11T07:48:35.017Z,60.88
2023-05-11T07:51:03.262Z,61.21
2023-05-11T07:53:31.549Z,61.06
2023-05-11T07:56:00.792Z,60.99
2023-05-11T07:58:28.292Z,60.90
2023-05-11T08:00:57.242Z,61.20
2023-05-11T08:03:25.152Z,61.21
2023-05-11T08:05:52.968Z,61.18
2023-05-11T08:08:20.565Z,60.96
2023-05-11T08:10:48.413Z,60.81
2023-05-11T08:13:16.304Z,60.68
2023-05-11T08:15:45.168Z,60.85
2023-05-11T08:18:12.985Z,60.84
2023-05-11T08:20:42.240Z,61.25
2023-05-11T08:23:10.946Z,60.64
2023-05-11T08:25:38.772Z,60.36
2023-05-11T08:28:06.294Z,60.37
2023-05-11T08:30:33.799Z,59.71
2023-05-11T08:33:07.860Z,60.01
2023-05-11T08:35:45.789Z,59.59
2023-05-11T08:38:14.407Z,59.49
2023-05-11T08:40:47.901Z,59.08
2023-05-11T08:43:19.194Z,59.28
2023-05-11T08:45:50.500Z,59.34
2023-05-11T08:48:21.091Z,58.80
2023-05-11T08:50:48.736Z,59.06
2023-05-11T08:53:16.205Z,58.51
2023-05-11T08:55:44.219Z,58.74
2023-05-11T08:58:15.182Z,58.20
2023-05-11T09:00:44.191Z,57.71
2023-05-11T09:03:12.190Z,57.77
2023-05-11T09:05:40.820Z,57.50
2023-05-11T09:08:09.130Z,57.81
2023-05-11T09:10:37.703Z,57.43
2023-05-11T09:13:05.891Z,57.60
2023-05-11T09:15:36.860Z,57.22
2023-05-11T09:18:05.665Z,56.95
2023-05-11T09:20:34.729Z,56.57
2023-05-11T09:23:02.600Z,55.71
2023-05-11T09:25:34.952Z,55.77
2023-05-11T09:28:02.549Z,55.46
2023-05-11T09:30:30.423Z,55.77
2023-05-11T09:32:59.673Z,55.90
2023-05-11T09:35:29.441Z,55.96
2023-05-11T09:38:06.848Z,56.07
2023-05-11T09:40:37.432Z,56.46
2023-05-11T09:43:23.831Z,56.65
2023-05-11T09:45:53.999Z,56.84
2023-05-11T09:48:22.165Z,56.18
2023-05-11T09:50:51.353Z,56.11
2023-05-11T09:53:18.953Z,56.07
2023-05-11T09:55:54.736Z,55.98
2023-05-11T09:58:22.399Z,56.19
2023-05-11T10:00:51.934Z,55.42
2023-05-11T10:03:20.336Z,55.62
2023-05-11T10:05:59.425Z,55.85
2023-05-11T10:08:32.077Z,56.14
2023-05-11T10:11:01.540Z,55.73
2023-05-11T10:13:30.864Z,55.88
2023-05-11T10:16:03.622Z,56.53
2023-05-11T10:18:32.557Z,56.32
2023-05-11T10:21:00.373Z,56.56
2023-05-11T10:23:28.289Z,56.00
2023-05-11T10:25:57.976Z,56.58
2023-05-11T10:28:25.667Z,56.49
2023-05-11T10:30:54.019Z,57.15
2023-05-11T10:33:22.217Z,56.51
2023-05-11T10:35:53.919Z,56.10
2023-05-11T10:38:23.430Z,56.31
2023-05-11T10:40:53.206Z,56.35
2023-05-11T10:43:24.443Z,56.69
2023-05-11T10:45:54.322Z,56.86
2023-05-11T10:49:04.170Z,56.19
2023-05-11T10:51:41.525Z,55.73
2023-05-11T10:54:54.218Z,56.71
2023-05-11T10:57:38.194Z,56.42
2023-05-11T11:00:35.956Z,56.11
2023-05-11T11:03:11.751Z,55.79
2023-05-11T11:05:39.997Z,55.55
2023-05-11T11:08:09.563Z,55.51
2023-05-11T11:10:39.651Z,54.90
2023-05-11T11:13:12.892Z,54.39
2023-05-11T11:15:56.185Z,54.06
2023-05-11T11:18:26.455Z,54.09
2023-05-11T11:20:56.867Z,54.21
2023-05-11T11:23:39.648Z,53.97
2023-05-11T11:26:08.812Z,55.02
2023-05-11T11:28:54.546Z,55.05
2023-05-11T11:31:27.733Z,54.79
2023-05-11T11:33:59.182Z,55.70
2023-05-11T11:36:55.191Z,56.11
2023-05-11T11:39:25.441Z,57.13
2023-05-11T11:42:08.337Z,57.32
2023-05-11T11:44:36.993Z,57.36
2023-05-11T11:47:17.641Z,57.45
2023-05-11T11:49:48.466Z,57.55
2023-05-11T11:52:28.659Z,57.55
2023-05-11T11:54:59.776Z,57.75
2023-05-11T11:57:32.624Z,58.12
2023-05-11T12:00:22.800Z,58.10
2023-05-11T12:02:50.914Z,58.56
2023-05-11T12:05:20.471Z,58.64
2023-05-11T12:07:52.886Z,59.64
2023-05-11T12:10:22.223Z,60.79
2023-05-11T12:12:51.862Z,62.69
2023-05-11T12:15:34.657Z,65.76
2023-05-11T12:18:03.442Z,65.67
2023-05-11T12:20:31.068Z,65.87
2023-05-11T12:22:58.628Z,65.17
2023-05-11T12:25:26.481Z,65.50
2023-05-11T12:28:02.056Z,65.80
2023-05-11T12:30:32.401Z,65.74
2023-05-11T12:33:04.102Z,64.94
2023-05-11T12:35:34.253Z,63.97
2023-05-11T12:38:02.866Z,63.20
2023-05-11T12:40:31.279Z,63.22
2023-05-11T12:43:00.871Z,62.84
2023-05-11T12:45:29.854Z,62.19
2023-05-11T12:47:58.593Z,62.04
2023-05-11T12:50:26.550Z,61.54
2023-05-11T12:52:54.254Z,62.42
2023-05-11T12:55:31.260Z,62.09
2023-05-11T12:58:13.712Z,62.83
2023-05-11T13:00:55.601Z,63.19
2023-05-11T13:03:25.324Z,62.74
2023-05-11T13:06:03.756Z,62.95
2023-05-11T13:08:31.675Z,63.16
2023-05-11T13:11:25.807Z,63.54
2023-05-11T13:13:56.235Z,63.83
2023-05-11T13:16:33.938Z,63.86
2023-05-11T13:19:04.406Z,64.10
2023-05-11T13:21:33.535Z,64.56
2023-05-11T13:24:04.059Z,65.92
2023-05-11T13:26:33.006Z,66.97
2023-05-11T13:31:31.703Z,69.65
2023-05-11T13:34:00.451Z,71.04
2023-05-11T13:36:27.914Z,71.79
2023-05-11T13:38:55.613Z,73.68
2023-05-11T13:41:23.652Z,74.82
2023-05-11T13:43:51.121Z,75.02
2023-05-11T13:46:18.721Z,75.83
2023-05-11T13:48:46.496Z,76.63
2023-05-11T13:51:14.038Z,77.19
2023-05-11T13:53:41.489Z,77.58
2023-05-11T13:56:09.279Z,77.64
2023-05-11T13:58:36.881Z,77.88
2023-05-11T14:01:08.338Z,79.05
2023-05-11T14:03:36.692Z,79.05
2023-05-11T14:06:04.723Z,80.11
2023-05-11T14:08:32.246Z,80.34
2023-05-11T14:11:00.069Z,80.93
2023-05-11T14:13:27.584Z,82.05
2023-05-11T14:15:55.105Z,82.93
2023-05-11T14:18:25.042Z,83.21
2023-05-11T14:20:53.961Z,83.86
2023-05-11T14:23:21.589Z,84.19
2023-05-11T14:25:49.539Z,85.41
2023-05-11T14:28:17.709Z,85.47
2023-05-11T14:30:45.230Z,85.85
2023-05-11T14:33:13.084Z,87.00
2023-05-11T14:35:40.622Z,86.61
2023-05-11T14:38:08.194Z,87.61
2023-05-11T14:40:36.072Z,87.52
2023-05-11T14:43:03.565Z,87.49
2023-05-11T14:45:31.039Z,88.03
2023-05-11T14:47:59.000Z,88.24
2023-05-11T14:50:28.237Z,88.85
2023-05-11T14:52:55.752Z,88.81
2023-05-11T14:55:23.576Z,89.22
2023-05-11T14:57:51.607Z,89.66
2023-05-11T15:00:19.476Z,90.32
2023-05-11T15:02:47.564Z,90.33
2023-05-11T15:05:15.172Z,90.46
2023-05-11T15:07:42.625Z,90.94
2023-05-11T15:10:11.313Z,90.75
2023-05-11T15:12:39.281Z,91.09
2023-05-11T15:15:07.980Z,91.36
2023-05-11T15:17:36.174Z,90.74
2023-05-11T15:20:04.341Z,91.12
2023-05-11T15:22:32.125Z,91.40
2023-05-11T15:25:00.688Z,91.37
2023-05-11T15:27:28.350Z,92.16
2023-05-11T15:29:56.005Z,91.86
2023-05-11T15:32:23.883Z,92.49
2023-05-11T15:34:59.730Z,92.90
2023-05-11T15:37:28.670Z,93.30
2023-05-11T15:39:56.301Z,93.82
2023-05-11T15:42:23.907Z,93.42
2023-05-11T15:44:51.723Z,94.07
2023-05-11T15:47:19.211Z,93.98
2023-05-11T15:49:46.677Z,94.03
2023-05-11T15:52:14.452Z,94.63
2023-05-11T15:54:42.100Z,94.46
2023-05-11T15:57:09.647Z,95.10
2023-05-11T15:59:38.138Z,95.20
2023-05-11T16:02:06.355Z,95.47
2023-05-11T16:04:34.241Z,95.51
2023-05-11T16:07:01.721Z,95.74
2023-05-11T16:09:29.209Z,96.14
2023-05-11T16:11:56.975Z,96.24
2023-05-11T16:14:24.490Z,96.06
2023-05-11T16:16:52.255Z,96.08
2023-05-11T16:19:20.366Z,96.27
2023-05-11T16:21:47.915Z,96.05
2023-05-11T16:24:15.452Z,96.04
2023-05-11T16:26:43.316Z,96.16
2023-05-11T16:29:10.853Z,96.02
2023-05-11T16:31:38.435Z,96.38
2023-05-11T16:34:06.251Z,96.41
2023-05-11T16:36:34.115Z,96.18
2023-05-11T16:39:01.605Z,96.44
2023-05-11T16:41:29.420Z,96.58
2023-05-11T16:43:56.907Z,96.93
2023-05-11T16:46:24.630Z,96.65
2023-05-11T16:48:52.529Z,96.83
2023-05-11T16:51:20.732Z,96.77
2023-05-11T16:53:48.434Z,96.97
2023-05-11T16:56:16.878Z,97.25
2023-05-11T16:58:44.518Z,97.43
2023-05-11T17:01:12.382Z,97.59
2023-05-11T17:03:40.805Z,97.62
2023-05-11T17:06:10.205Z,97.46
2023-05-11T17:08:37.753Z,97.06
2023-05-11T17:11:05.939Z,97.22
2023-05-11T17:13:34.014Z,97.39
2023-05-11T17:16:02.388Z,97.66
2023-05-11T17:18:30.451Z,98.04
2023-05-11T17:20:58.319Z,97.81
2023-05-11T17:23:25.955Z,98.13
2023-05-11T17:25:54.340Z,97.87
2023-05-11T17:28:22.264Z,98.26
2023-05-11T17:30:54.344Z,98.18
2023-05-11T17:33:23.516Z,98.22
2023-05-11T17:35:51.412Z,98.38
2023-05-11T17:38:18.896Z,98.32
2023-05-11T17:40:47.891Z,98.24
2023-05-11T17:43:15.538Z,97.79
2023-05-11T17:45:43.061Z,97.92
2023-05-11T17:48:12.876Z,97.95
2023-05-11T17:50:40.783Z,97.92
2023-05-11T17:53:08.429Z,97.83
2023-05-11T17:55:39.813Z,98.05
2023-05-11T17:58:07.389Z,98.00
2023-05-11T18:00:35.168Z,97.88
2023-05-11T18:03:04.756Z,97.70
2023-05-11T18:05:44.592Z,97.92
2023-05-11T18:08:15.740Z,97.90
2023-05-11T18:10:44.566Z,98.04
2023-05-11T18:13:13.124Z,98.23
2023-05-11T18:15:41.060Z,98.11
2023-05-11T18:18:08.757Z,98.00
2023-05-11T18:20:38.993Z,98.08
2023-05-11T18:23:06.847Z,98.30
2023-05-11T18:25:34.443Z,98.02
2023-05-11T18:28:02.560Z,97.81
2023-05-11T18:30:30.647Z,97.87
2023-05-11T18:32:58.971Z,97.45
2023-05-11T18:35:26.630Z,97.11
2023-05-11T18:37:54.517Z,97.22
2023-05-11T18:40:22.737Z,97.33
2023-05-11T18:42:52.928Z,97.26
2023-05-11T18:45:20.737Z,97.14
2023-05-11T18:47:48.355Z,97.10
2023-05-11T18:50:16.091Z,97.04
2023-05-11T18:52:44.359Z,97.09
2023-05-11T18:55:11.956Z,97.27
2023-05-11T18:57:40.232Z,97.10
2023-05-11T19:00:10.073Z,96.92
2023-05-11T19:02:37.761Z,97.06
2023-05-11T19:05:05.971Z,97.16
2023-05-11T19:07:33.783Z,97.42
2023-05-11T19:10:01.331Z,97.48
2023-05-11T19:12:28.878Z,97.74
2023-05-11T19:14:56.656Z,97.94
2023-05-11T19:17:24.225Z,98.15
2023-05-11T19:19:52.240Z,98.23
2023-05-11T19:22:21.437Z,98.37
2023-05-11T19:24:50.113Z,98.61
2023-05-11T19:27:17.617Z,98.84
2023-05-11T19:29:45.397Z,98.75
2023-05-11T19:32:12.964Z,98.83
2023-05-11T19:34:40.570Z,98.92
2023-05-11T19:37:09.176Z,99.11
2023-05-11T19:39:36.780Z,99.02
2023-05-11T19:42:04.422Z,98.86
2023-05-11T19:44:33.132Z,98.97
2023-05-11T19:47:00.974Z,99.17
2023-05-11T19:49:29.466Z,99.03
2023-05-11T19:51:57.426Z,99.05
2023-05-11T19:54:25.011Z,99.21
2023-05-11T19:56:52.495Z,99.08
2023-05-11T19:59:20.396Z,99.02
2023-05-11T20:01:48.039Z,98.98
2023-05-11T20:04:16.044Z,99.22
2023-05-11T20:06:43.557Z,99.25
2023-05-11T20:09:11.054Z,99.06
2023-05-11T20:11:38.910Z,98.92
2023-05-11T20:14:06.713Z,99.09
2023-05-11T20:16:34.293Z,99.24
2023-05-11T20:19:02.192Z,99.34
2023-05-11T20:21:29.746Z,99.14
2023-05-11T20:23:57.310Z,99.25
2023-05-11T20:26:25.833Z,98.98
2023-05-11T20:28:54.585Z,99.22
2023-05-11T20:31:22.164Z,99.17
2023-05-11T20:36:20.503Z,99.17
2023-05-11T20:38:48.627Z,99.29
2023-05-11T20:41:16.503Z,99.16
2023-05-11T20:43:44.075Z,99.17
2023-05-11T20:46:11.632Z,99.00
2023-05-11T20:48:41.066Z,99.07
2023-05-11T20:51:09.838Z,98.79
2023-05-11T20:53:37.961Z,98.91
2023-05-11T20:56:06.174Z,98.95
2023-05-11T20:58:33.770Z,98.86
2023-05-11T21:01:01.393Z,99.20
2023-05-11T21:03:29.364Z,99.06
2023-05-11T21:05:56.999Z,99.12
2023-05-11T21:08:24.629Z,99.05
2023-05-11T21:10:53.238Z,98.87
2023-05-11T21:13:20.780Z,98.97
2023-05-11T21:15:48.311Z,98.77
2023-05-11T21:18:16.188Z,98.77
2023-05-11T21:20:43.823Z,98.56
2023-05-11T21:23:11.388Z,98.77
2023-05-11T21:25:39.369Z,98.87
2023-05-11T21:28:06.881Z,98.71
2023-05-11T21:30:34.728Z,98.78
2023-05-11T21:33:02.627Z,98.58
2023-05-11T21:35:30.136Z,98.47
2023-05-11T21:37:57.676Z,98.50
2023-05-11T21:40:25.601Z,98.94
2023-05-11T21:42:53.144Z,98.86
2023-05-11T21:45:20.674Z,98.73
2023-05-11T21:47:48.549Z,98.68
2023-05-11T21:50:17.075Z,98.65
2023-05-11T21:52:44.757Z,98.54
2023-05-11T21:55:12.565Z,98.75
2023-05-11T21:57:40.103Z,98.75
2023-05-11T22:00:09.553Z,98.74
2023-05-11T22:02:38.106Z,98.61
2023-05-11T22:05:06.175Z,98.68
2023-05-11T22:07:33.678Z,98.54
2023-05-11T22:10:01.528Z,98.39
2023-05-11T22:12:29.059Z,98.48
2023-05-11T22:14:56.965Z,98.23
2023-05-11T22:17:25.004Z,98.32
2023-05-11T22:19:52.590Z,98.37
2023-05-11T22:22:20.067Z,98.15
2023-05-11T22:24:47.866Z,97.85
2023-05-11T22:27:16.172Z,97.89
2023-05-11T22:29:43.704Z,97.97
2023-05-11T22:32:12.111Z,98.10
2023-05-11T22:34:39.764Z,98.06
2023-05-11T22:37:07.494Z,98.11
2023-05-11T22:39:35.302Z,98.22
2023-05-11T22:42:03.547Z,98.09
2023-05-11T22:44:31.075Z,98.24
2023-05-11T22:47:02.435Z,98.19
2023-05-11T22:49:29.914Z,98.55
2023-05-11T22:51:59.626Z,98.45
2023-05-11T22:54:27.488Z,98.56
2023-05-11T22:56:55.053Z,98.55
2023-05-11T22:59:22.509Z,98.65
2023-05-11T23:01:50.375Z,98.60
2023-05-11T23:04:17.895Z,98.48
2023-05-11T23:06:45.398Z,98.55
2023-05-11T23:09:13.195Z,98.46
2023-05-11T23:11:40.677Z,98.55
2023-05-11T23:14:08.352Z,98.53
2023-05-11T23:16:36.160Z,98.53
2023-05-11T23:19:03.706Z,98.75
2023-05-11T23:21:31.267Z,98.81
2023-05-11T23:23:59.116Z,98.87
2023-05-11T23:26:26.587Z,98.95
2023-05-11T23:28:54.128Z,99.12
2023-05-11T23:31:22.038Z,99.04
2023-05-11T23:33:49.577Z,98.98
2023-05-11T23:36:17.164Z,99.20
2023-05-11T23:38:44.954Z,98.85
2023-05-11T23:41:12.526Z,99.09
2023-05-11T23:43:39.991Z,98.98
2023-05-11T23:46:07.778Z,98.79
2023-05-11T23:48:35.313Z,98.90
2023-05-11T23:51:02.812Z,99.05
2023-05-11T23:53:30.874Z,98.95
2023-05-11T23:55:58.494Z,99.11
2023-05-11T23:58:26.025Z,98.97
